createdAt,value
2018-07-04T00:02:08.037Z,26.43
2018-07-04T00:04:47.954Z,26.43
2018-07-04T00:07:27.729Z,26.44
2018-07-04T00:10:07.628Z,26.44
2018-07-04T00:12:47.533Z,26.45
2018-07-04T00:15:28.440Z,26.48
2018-07-04T00:18:08.428Z,26.48
2018-07-04T00:20:48.602Z,26.51
2018-07-04T00:34:50.044Z,26.46
2018-07-04T00:37:30.001Z,26.45
2018-07-04T00:40:09.958Z,26.41
2018-07-04T00:42:49.807Z,26.32
2018-07-04T00:45:29.644Z,26.21
2018-07-04T00:48:09.691Z,26.06
2018-07-04T00:50:49.528Z,25.93
2018-07-04T00:53:29.247Z,25.84
2018-07-04T00:56:09.232Z,25.80
2018-07-04T00:58:48.812Z,25.79
2018-07-04T01:01:28.522Z,25.79
2018-07-04T01:04:08.122Z,25.77
2018-07-04T01:06:48.575Z,25.71
2018-07-04T01:09:28.325Z,25.67
2018-07-04T01:12:08.249Z,25.64
2018-07-04T01:14:48.675Z,25.61
2018-07-04T01:17:28.598Z,25.54
2018-07-04T01:20:10.116Z,25.53
2018-07-04T01:22:49.963Z,25.56
2018-07-04T01:25:30.164Z,25.57
2018-07-04T01:28:10.261Z,25.53
2018-07-04T01:30:50.086Z,25.51
2018-07-04T01:33:30.840Z,25.53
2018-07-04T01:36:10.901Z,25.59
2018-07-04T01:38:50.739Z,25.64
2018-07-04T01:41:30.480Z,25.69
2018-07-04T01:44:10.574Z,25.74
2018-07-04T01:46:50.520Z,25.78
2018-07-04T01:49:30.590Z,25.79
2018-07-04T01:52:10.892Z,25.80
2018-07-04T01:54:50.651Z,25.77
2018-07-04T01:57:30.458Z,25.74
2018-07-04T02:00:10.353Z,25.75
2018-07-04T02:02:50.290Z,25.76
2018-07-04T02:05:30.031Z,25.78
2018-07-04T02:08:09.889Z,25.80
2018-07-04T02:10:49.714Z,25.81
2018-07-04T02:13:29.553Z,25.81
2018-07-04T02:16:09.274Z,25.81
2018-07-04T02:18:49.263Z,25.81
2018-07-04T02:21:29.294Z,25.80
2018-07-04T02:24:08.939Z,25.80
2018-07-04T02:26:48.733Z,25.81
2018-07-04T02:29:28.764Z,25.82
2018-07-04T02:32:08.415Z,25.84
2018-07-04T02:34:48.057Z,25.83
2018-07-04T02:37:27.919Z,25.82
2018-07-04T02:40:07.900Z,25.81
2018-07-04T02:42:47.668Z,25.81
2018-07-04T02:45:27.615Z,25.81
2018-07-04T02:48:07.329Z,25.82
2018-07-04T02:50:47.105Z,25.83
2018-07-04T02:53:28.026Z,25.83
2018-07-04T02:56:08.107Z,25.83
2018-07-04T02:58:48.126Z,25.85
2018-07-04T03:01:28.298Z,25.87
2018-07-04T03:04:08.127Z,25.88
2018-07-04T03:06:48.041Z,25.89
2018-07-04T03:09:27.951Z,25.90
2018-07-04T03:12:08.005Z,25.88
2018-07-04T03:14:47.954Z,25.87
2018-07-04T03:17:27.925Z,25.87
2018-07-04T03:20:07.864Z,25.85
2018-07-04T03:22:47.584Z,25.83
2018-07-04T03:25:27.435Z,25.82
2018-07-04T03:28:20.034Z,25.81
2018-07-04T03:30:59.837Z,25.79
2018-07-04T03:33:39.626Z,25.79
2018-07-04T03:36:19.520Z,25.77
2018-07-04T03:38:59.460Z,25.77
2018-07-04T03:41:39.464Z,25.77
2018-07-04T03:44:19.318Z,25.77
2018-07-04T03:46:59.001Z,25.76
2018-07-04T03:49:38.784Z,25.75
2018-07-04T03:52:18.722Z,25.74
2018-07-04T03:54:58.546Z,25.74
2018-07-04T03:57:46.740Z,25.73
2018-07-04T04:00:26.869Z,25.73
2018-07-04T04:03:07.962Z,25.71
2018-07-04T04:05:47.903Z,25.71
2018-07-04T04:08:27.952Z,25.72
2018-07-04T04:11:08.285Z,25.70
2018-07-04T04:13:48.044Z,25.69
2018-07-04T04:16:28.242Z,25.68
2018-07-04T04:19:08.299Z,25.65
2018-07-04T04:21:48.840Z,25.65
2018-07-04T04:24:29.751Z,25.64
2018-07-04T04:27:09.662Z,25.64
2018-07-04T04:29:49.369Z,25.65
2018-07-04T04:32:29.069Z,25.67
2018-07-04T04:35:08.977Z,25.68
2018-07-04T04:37:49.215Z,25.69
2018-07-04T04:40:29.201Z,25.73
2018-07-04T04:43:09.015Z,25.76
2018-07-04T04:45:49.282Z,25.81
2018-07-04T04:48:29.421Z,25.87
2018-07-04T04:51:09.409Z,25.92
2018-07-04T04:53:49.185Z,25.99
2018-07-04T04:56:29.002Z,26.06
2018-07-04T04:59:08.791Z,26.15
2018-07-04T05:01:53.361Z,26.22
2018-07-04T05:04:33.398Z,26.30
2018-07-04T05:07:13.270Z,26.39
2018-07-04T05:09:52.936Z,26.46
2018-07-04T05:12:33.404Z,26.56
2018-07-04T05:15:13.369Z,26.63
2018-07-04T05:17:53.228Z,26.72
2018-07-04T05:20:33.272Z,26.80
2018-07-04T05:23:13.393Z,26.90
2018-07-04T05:25:53.220Z,27.02
2018-07-04T05:28:33.446Z,27.14
2018-07-04T05:31:14.118Z,27.28
2018-07-04T05:33:54.139Z,27.42
2018-07-04T05:36:34.449Z,27.58
2018-07-04T05:39:14.759Z,27.74
2018-07-04T05:41:54.325Z,27.88
2018-07-04T05:44:34.559Z,28.03
2018-07-04T05:47:14.973Z,28.19
2018-07-04T05:49:54.954Z,28.37
2018-07-04T05:52:35.033Z,28.52
2018-07-04T05:55:18.874Z,28.66
2018-07-04T06:07:07.988Z,29.37
2018-07-04T06:09:49.219Z,29.65
2018-07-04T06:12:34.551Z,29.99
2018-07-04T06:15:14.515Z,30.46
2018-07-04T06:17:54.666Z,30.95
2018-07-04T06:20:35.240Z,31.44
2018-07-04T06:23:15.099Z,31.94
2018-07-04T06:25:54.683Z,32.43
2018-07-04T06:28:34.300Z,32.78
2018-07-04T06:31:13.840Z,33.11
2018-07-04T06:33:53.322Z,33.33
2018-07-04T06:36:33.029Z,33.52
2018-07-04T06:39:00.564Z,33.90
2018-07-04T06:41:27.987Z,34.24
2018-07-04T06:43:55.497Z,34.55
2018-07-04T06:46:22.905Z,34.73
2018-07-04T06:48:50.376Z,34.95
2018-07-04T06:51:17.672Z,35.17
2018-07-04T06:53:45.066Z,35.40
2018-07-04T06:56:12.452Z,35.58
2018-07-04T06:58:39.903Z,35.81
2018-07-04T07:01:07.481Z,36.11
2018-07-04T07:03:47.228Z,36.38
2018-07-04T07:06:27.067Z,36.67
2018-07-04T07:09:06.811Z,36.93
2018-07-04T07:11:46.719Z,37.09
2018-07-04T07:14:28.241Z,37.15
2018-07-04T07:17:08.213Z,37.20
2018-07-04T07:23:00.550Z,37.31
2018-07-04T07:25:47.626Z,37.47
2018-07-04T07:37:22.485Z,37.95
2018-07-04T07:40:04.439Z,38.19
2018-07-04T07:42:44.839Z,38.51
2018-07-04T07:45:24.396Z,38.92
2018-07-04T07:48:04.063Z,39.23
2018-07-04T07:50:43.930Z,39.36
2018-07-04T07:53:24.165Z,39.69
2018-07-04T07:56:04.018Z,39.87
2018-07-04T07:58:43.742Z,40.03
2018-07-04T08:01:23.291Z,40.43
2018-07-04T08:04:03.085Z,40.80
2018-07-04T08:06:42.812Z,41.30
2018-07-04T08:09:22.516Z,41.83
2018-07-04T08:12:02.342Z,42.08
2018-07-04T08:14:42.211Z,42.27
2018-07-04T08:17:21.883Z,42.58
2018-07-04T08:20:01.482Z,42.93
2018-07-04T08:22:41.293Z,43.19
2018-07-04T08:25:21.113Z,43.28
2018-07-04T08:28:00.695Z,43.16
2018-07-04T08:30:40.349Z,42.95
2018-07-04T08:33:19.995Z,42.80
2018-07-04T08:36:11.055Z,42.69
2018-07-04T08:38:50.710Z,42.93
2018-07-04T08:41:30.198Z,43.34
2018-07-04T08:44:09.933Z,43.54
2018-07-04T08:46:49.453Z,43.29
2018-07-04T08:49:29.027Z,43.53
2018-07-04T08:52:08.778Z,43.25
2018-07-04T08:54:48.399Z,43.11
2018-07-04T08:57:28.290Z,43.06
2018-07-04T09:00:07.890Z,43.55
2018-07-04T09:02:47.631Z,44.19
2018-07-04T09:05:27.218Z,44.80
2018-07-04T09:08:06.936Z,45.43
2018-07-04T09:10:46.580Z,45.54
2018-07-04T09:13:26.113Z,45.18
2018-07-04T09:16:05.669Z,45.00
2018-07-04T09:18:45.128Z,45.16
2018-07-04T09:21:24.638Z,45.30
2018-07-04T09:24:04.303Z,45.43
2018-07-04T09:26:44.908Z,45.11
2018-07-04T09:29:24.472Z,44.26
2018-07-04T09:32:04.216Z,43.23
2018-07-04T09:34:43.837Z,42.61
2018-07-04T09:37:23.505Z,42.18
2018-07-04T09:40:03.134Z,41.50
2018-07-04T09:42:42.795Z,40.98
2018-07-04T09:45:22.463Z,40.40
2018-07-04T09:48:02.300Z,39.89
2018-07-04T09:50:41.890Z,39.37
2018-07-04T09:53:21.424Z,38.91
2018-07-04T09:56:01.049Z,38.44
2018-07-04T09:58:40.869Z,37.93
2018-07-04T10:01:25.831Z,37.48
2018-07-04T10:04:05.459Z,37.09
2018-07-04T10:06:45.625Z,36.77
2018-07-04T10:09:25.426Z,36.48
2018-07-04T10:12:05.194Z,36.18
2018-07-04T10:14:44.966Z,35.94
2018-07-04T10:17:24.700Z,35.74
2018-07-04T10:20:04.259Z,35.58
2018-07-04T10:22:43.807Z,35.33
2018-07-04T10:25:23.223Z,35.10
2018-07-04T10:28:02.996Z,34.83
2018-07-04T10:30:42.712Z,34.53
2018-07-04T10:33:22.243Z,34.31
2018-07-04T10:36:01.819Z,34.07
2018-07-04T10:38:42.622Z,33.87
2018-07-04T10:41:22.149Z,33.69
2018-07-04T10:44:01.720Z,33.51
2018-07-04T10:46:41.501Z,33.41
2018-07-04T10:49:21.213Z,33.36
2018-07-04T10:52:00.987Z,33.34
2018-07-04T10:54:40.548Z,33.30
2018-07-04T10:57:20.290Z,33.24
2018-07-04T11:00:00.097Z,33.14
2018-07-04T11:02:39.754Z,33.05
2018-07-04T11:05:19.256Z,32.96
2018-07-04T11:07:59.014Z,32.88
2018-07-04T11:10:38.630Z,32.83
2018-07-04T11:13:18.271Z,32.81
2018-07-04T11:15:57.833Z,32.84
2018-07-04T11:18:37.539Z,32.96
2018-07-04T11:21:17.113Z,33.10
2018-07-04T11:23:56.966Z,33.19
2018-07-04T11:26:36.563Z,33.36
2018-07-04T11:29:16.208Z,33.71
2018-07-04T11:31:55.979Z,34.14
2018-07-04T11:34:35.805Z,34.74
2018-07-04T11:37:16.211Z,35.29
2018-07-04T11:39:55.939Z,35.89
2018-07-04T11:42:37.135Z,36.41
2018-07-04T11:45:17.495Z,36.81
2018-07-04T11:47:44.822Z,37.10
2018-07-04T11:50:12.162Z,37.26
2018-07-04T11:52:39.475Z,37.26
2018-07-04T11:55:06.810Z,37.18
2018-07-04T11:57:34.226Z,37.10
2018-07-04T12:00:01.678Z,37.00
2018-07-04T12:02:29.065Z,36.85
2018-07-04T12:05:08.590Z,36.66
2018-07-04T12:07:36.080Z,36.47
2018-07-04T12:10:03.495Z,36.25
2018-07-04T12:12:30.868Z,36.08
2018-07-04T12:14:59.211Z,35.95
2018-07-04T12:17:26.639Z,35.70
2018-07-04T12:19:54.048Z,35.67
2018-07-04T12:22:21.560Z,35.67
2018-07-04T12:24:48.989Z,35.78
2018-07-04T12:27:16.628Z,35.72
2018-07-04T12:29:44.033Z,35.69
2018-07-04T12:32:11.332Z,35.71
2018-07-04T12:34:38.707Z,35.09
2018-07-04T12:37:06.233Z,35.85
2018-07-04T12:39:33.580Z,36.07
2018-07-04T12:42:01.048Z,36.24
2018-07-04T12:44:28.447Z,36.36
2018-07-04T12:46:55.807Z,36.52
2018-07-04T12:49:27.150Z,36.65
2018-07-04T12:51:54.761Z,36.68
2018-07-04T12:54:27.483Z,36.60
2018-07-04T12:57:07.062Z,36.59
2018-07-04T12:59:46.566Z,36.62
2018-07-04T13:02:26.254Z,36.60
2018-07-04T13:05:05.755Z,36.54
2018-07-04T13:07:45.342Z,36.46
2018-07-04T13:10:24.919Z,36.39
2018-07-04T13:13:04.623Z,36.35
2018-07-04T13:15:44.227Z,36.28
2018-07-04T13:18:23.637Z,36.06
2018-07-04T13:21:03.294Z,35.89
2018-07-04T13:23:43.029Z,35.69
2018-07-04T13:26:22.536Z,35.56
2018-07-04T13:29:02.107Z,35.43
2018-07-04T13:31:41.601Z,35.28
2018-07-04T13:34:21.358Z,35.24
2018-07-04T13:37:00.939Z,35.18
2018-07-04T13:39:40.634Z,34.98
2018-07-04T13:42:20.202Z,34.81
2018-07-04T13:44:59.834Z,34.74
2018-07-04T13:47:39.389Z,34.73
2018-07-04T13:50:18.951Z,34.65
2018-07-04T13:52:58.515Z,34.61
2018-07-04T13:55:38.110Z,34.65
2018-07-04T13:58:17.732Z,34.62
2018-07-04T14:00:57.226Z,34.54
2018-07-04T14:03:36.796Z,34.35
2018-07-04T14:06:16.420Z,34.15
2018-07-04T14:08:56.026Z,34.07
2018-07-04T14:11:35.554Z,34.05
2018-07-04T14:14:15.080Z,33.96
2018-07-04T14:16:54.726Z,33.92
2018-07-04T14:19:34.282Z,33.91
2018-07-04T14:22:13.876Z,33.90
2018-07-04T14:24:53.433Z,33.97
2018-07-04T14:27:33.017Z,34.03
2018-07-04T14:30:12.630Z,34.10
2018-07-04T14:32:52.225Z,34.14
2018-07-04T14:35:31.887Z,34.14
2018-07-04T14:38:11.795Z,34.20
2018-07-04T14:40:51.410Z,34.23
2018-07-04T14:43:31.458Z,34.18
2018-07-04T14:46:11.169Z,34.19
2018-07-04T14:48:50.808Z,34.18
2018-07-04T14:51:30.512Z,34.11
2018-07-04T14:54:10.057Z,34.07
2018-07-04T14:56:49.603Z,34.10
2018-07-04T14:59:29.265Z,34.19
2018-07-04T15:02:09.820Z,34.29
2018-07-04T15:04:49.445Z,34.37
2018-07-04T15:07:29.392Z,34.46
2018-07-04T15:10:11.626Z,34.54
2018-07-04T15:12:51.396Z,34.61
2018-07-04T15:15:31.138Z,34.64
2018-07-04T15:18:10.780Z,34.67
2018-07-04T15:20:51.537Z,34.60
2018-07-04T15:23:31.382Z,34.52
2018-07-04T15:26:11.020Z,34.42
2018-07-04T15:28:50.837Z,34.36
2018-07-04T15:31:30.625Z,34.34
2018-07-04T15:34:11.305Z,34.33
2018-07-04T15:36:51.791Z,34.32
2018-07-04T15:39:31.679Z,34.31
2018-07-04T15:42:13.773Z,34.27
2018-07-04T15:50:55.391Z,34.19
2018-07-04T15:53:36.222Z,34.17
2018-07-04T15:56:16.491Z,34.14
2018-07-04T15:59:02.020Z,34.09
2018-07-04T16:01:44.489Z,34.06
2018-07-04T16:04:24.744Z,34.03
2018-07-04T16:07:04.668Z,34.01
2018-07-04T16:09:45.085Z,33.96
2018-07-04T16:12:25.910Z,33.85
2018-07-04T16:15:06.057Z,33.78
2018-07-04T16:17:47.127Z,33.69
2018-07-04T16:20:33.848Z,33.66
2018-07-04T16:23:14.148Z,33.59
2018-07-04T16:25:54.520Z,33.44
2018-07-04T16:28:34.189Z,33.40
2018-07-04T16:31:16.953Z,33.33
2018-07-04T16:33:56.754Z,33.35
2018-07-04T16:36:39.716Z,33.31
2018-07-04T16:39:20.119Z,33.26
2018-07-04T16:42:01.315Z,33.21
2018-07-04T16:44:42.744Z,33.13
2018-07-04T16:47:23.169Z,32.99
2018-07-04T16:50:02.890Z,32.84
2018-07-04T16:52:44.833Z,32.76
2018-07-04T16:55:25.059Z,32.67
2018-07-04T16:58:05.636Z,32.60
2018-07-04T17:00:45.647Z,32.54
2018-07-04T17:06:13.239Z,32.53
2018-07-04T17:08:55.135Z,32.53
2018-07-04T17:11:35.221Z,32.53
2018-07-04T17:14:15.231Z,32.52
2018-07-04T17:16:55.051Z,32.50
2018-07-04T17:19:34.932Z,32.45
2018-07-04T17:22:14.787Z,32.40
2018-07-04T17:24:54.443Z,32.38
2018-07-04T17:27:34.169Z,32.31
2018-07-04T17:30:13.799Z,32.21
2018-07-04T17:32:53.586Z,32.16
2018-07-04T17:35:34.033Z,32.15
2018-07-04T17:38:14.313Z,32.16
2018-07-04T17:40:54.386Z,32.13
2018-07-04T17:43:34.457Z,32.09
2018-07-04T17:46:14.149Z,32.02
2018-07-04T17:48:54.126Z,31.97
2018-07-04T17:51:33.942Z,31.93
2018-07-04T17:54:13.769Z,31.85
2018-07-04T17:56:53.732Z,31.82
2018-07-04T17:59:33.404Z,31.70
2018-07-04T18:02:13.455Z,31.67
2018-07-04T18:04:53.312Z,31.67
2018-07-04T18:07:33.362Z,31.61
2018-07-04T18:10:18.249Z,31.58
2018-07-04T18:12:58.148Z,31.57
2018-07-04T18:15:37.872Z,31.53
2018-07-04T18:18:17.653Z,31.45
2018-07-04T18:20:57.454Z,31.38
2018-07-04T18:23:37.750Z,31.30
2018-07-04T18:26:17.675Z,31.17
2018-07-04T18:28:57.751Z,31.03
2018-07-04T18:31:38.241Z,30.91
2018-07-04T18:34:18.164Z,30.81
2018-07-04T18:36:57.986Z,30.71
2018-07-04T18:39:38.258Z,30.61
2018-07-04T18:42:18.212Z,30.52
2018-07-04T18:44:58.261Z,30.43
2018-07-04T18:47:38.254Z,30.36
2018-07-04T18:50:18.201Z,30.27
2018-07-04T18:52:57.838Z,30.21
2018-07-04T18:55:39.476Z,30.18
2018-07-04T18:58:19.436Z,30.20
2018-07-04T19:00:59.387Z,30.20
2018-07-04T19:03:39.678Z,30.16
2018-07-04T19:06:19.614Z,30.11
2018-07-04T19:08:59.467Z,30.09
2018-07-04T19:11:39.385Z,30.07
2018-07-04T19:14:19.224Z,30.04
2018-07-04T19:16:59.449Z,29.99
2018-07-04T19:19:39.564Z,29.96
2018-07-04T19:22:19.572Z,29.93
2018-07-04T19:24:59.413Z,29.89
2018-07-04T19:27:39.501Z,29.87
2018-07-04T19:30:19.166Z,29.82
2018-07-04T19:32:59.218Z,29.77
2018-07-04T19:35:38.938Z,29.74
2018-07-04T19:38:19.692Z,29.71
2018-07-04T19:40:59.451Z,29.67
2018-07-04T19:43:39.533Z,29.60
2018-07-04T19:46:19.403Z,29.56
2018-07-04T19:48:59.145Z,29.50
2018-07-04T19:51:38.925Z,29.47
2018-07-04T19:54:18.891Z,29.45
2018-07-04T19:56:58.741Z,29.41
2018-07-04T19:59:38.628Z,29.36
2018-07-04T20:02:18.387Z,29.32
2018-07-04T20:04:58.072Z,29.28
2018-07-04T20:07:37.847Z,29.24
2018-07-04T20:10:17.790Z,29.21
2018-07-04T20:12:57.753Z,29.17
2018-07-04T20:15:37.751Z,29.14
2018-07-04T20:18:17.408Z,29.08
2018-07-04T20:20:57.484Z,29.04
2018-07-04T20:23:37.202Z,29.00
2018-07-04T20:26:17.298Z,28.96
2018-07-04T20:28:57.049Z,28.92
2018-07-04T20:31:36.795Z,28.87
2018-07-04T20:34:16.794Z,28.80
2018-07-04T20:36:57.713Z,28.73
2018-07-04T20:39:37.830Z,28.62
2018-07-04T20:42:17.738Z,28.51
2018-07-04T20:44:57.880Z,28.46
2018-07-04T20:47:37.836Z,28.40
2018-07-04T20:50:18.076Z,28.33
2018-07-04T20:52:58.265Z,28.26
2018-07-04T20:55:38.462Z,28.21
2018-07-04T20:58:18.340Z,28.16
2018-07-04T21:00:58.283Z,28.11
2018-07-04T21:03:37.899Z,28.08
2018-07-04T21:06:17.617Z,28.08
2018-07-04T21:08:57.198Z,28.06
2018-07-04T21:11:36.763Z,28.05
2018-07-04T21:14:16.350Z,28.03
2018-07-04T21:16:55.913Z,28.02
2018-07-04T21:19:35.564Z,27.98
2018-07-04T21:22:15.437Z,27.97
2018-07-04T21:24:55.372Z,27.91
2018-07-04T21:27:35.328Z,27.84
2018-07-04T21:30:15.716Z,27.78
2018-07-04T21:32:55.716Z,27.75
2018-07-04T21:35:36.196Z,27.73
2018-07-04T21:38:16.178Z,27.72
2018-07-04T21:40:56.553Z,27.69
2018-07-04T21:43:36.374Z,27.68
2018-07-04T21:46:16.134Z,27.67
2018-07-04T21:48:55.793Z,27.66
2018-07-04T21:51:35.385Z,27.65
2018-07-04T21:54:15.003Z,27.63
2018-07-04T21:56:55.853Z,27.62
2018-07-04T21:59:38.034Z,27.63
2018-07-04T22:02:17.995Z,27.62
2018-07-04T22:04:57.644Z,27.64
2018-07-04T22:07:37.559Z,27.63
2018-07-04T22:10:17.258Z,27.63
2018-07-04T22:12:56.802Z,27.63
2018-07-04T22:15:36.541Z,27.62
2018-07-04T22:18:16.096Z,27.60
2018-07-04T22:20:55.859Z,27.60
2018-07-04T22:23:36.117Z,27.61
2018-07-04T22:26:16.007Z,27.61
2018-07-04T22:28:55.591Z,27.63
2018-07-04T22:31:35.145Z,27.61
2018-07-04T22:34:15.042Z,27.61
2018-07-04T22:36:54.714Z,27.59
2018-07-04T22:39:34.414Z,27.59
2018-07-04T22:42:14.118Z,27.59
2018-07-04T22:44:53.799Z,27.55
2018-07-04T22:47:33.580Z,27.53
2018-07-04T22:50:13.220Z,27.50
2018-07-04T22:52:52.859Z,27.47
2018-07-04T22:55:32.556Z,27.42
2018-07-04T22:58:12.143Z,27.40
2018-07-04T23:00:51.642Z,27.39
2018-07-04T23:03:31.369Z,27.36
2018-07-04T23:06:11.093Z,27.31
2018-07-04T23:08:50.682Z,27.28
2018-07-04T23:11:30.528Z,27.23
2018-07-04T23:14:10.519Z,27.18
2018-07-04T23:16:50.480Z,27.14
2018-07-04T23:19:30.404Z,27.10
2018-07-04T23:22:05.947Z,27.07
2018-07-04T23:24:45.574Z,27.05
2018-07-04T23:27:25.243Z,27.00
2018-07-04T23:30:04.988Z,26.99
2018-07-04T23:32:44.745Z,26.99
2018-07-04T23:35:24.316Z,26.98
2018-07-04T23:38:03.992Z,26.97
2018-07-04T23:40:43.689Z,26.95
2018-07-04T23:43:23.454Z,26.93
2018-07-04T23:46:03.820Z,26.91
2018-07-04T23:48:43.572Z,26.88
2018-07-04T23:51:23.106Z,26.85
2018-07-04T23:54:02.986Z,26.81
2018-07-04T23:56:42.613Z,26.76
2018-07-04T23:59:22.380Z,26.72
